Time;durP1;ratioP1;P1;durP2;ratioP2;P2;SDS_P1;SDS_P2;PMS_P1;PMS_P2;Temp;Humidity;BMP_temperature;BMP_pressure;BME280_temperature;BME280_humidity;BME280_pressure;Samples;Min_cycle;Max_cycle;Signal;HPM_P1;HPM_P2
2022/12/19 00:01:15;;;;;;;35.70;12.98;;;0.30;99.90;;;-0.22;100.00;101670.16;5184075;28;20049;-65
2022/12/19 00:03:49;;;;;;;44.38;14.25;;;0.40;99.90;;;-0.18;100.00;101668.81;5183744;28;20104;-65
2022/12/19 00:06:22;;;;;;;45.85;16.35;;;0.40;99.90;;;-0.17;100.00;101662.91;5183521;28;20056;-66
2022/12/19 00:08:55;;;;;;;32.60;12.98;;;0.40;99.90;;;-0.17;100.00;101660.34;5181765;28;20046;-66
2022/12/19 00:11:30;;;;;;;41.83;15.48;;;0.40;99.90;;;-0.18;100.00;101656.00;5183886;28;20038;-67
2022/12/19 00:14:02;;;;;;;44.65;14.73;;;0.40;99.90;;;-0.15;100.00;101661.38;5183776;28;20053;-66
2022/12/19 00:16:35;;;;;;;40.05;13.82;;;0.40;99.90;;;-0.11;100.00;101666.03;5183894;28;20486;-67
2022/12/19 00:19:07;;;;;;;36.78;13.63;;;0.50;99.90;;;-0.08;100.00;101656.03;5182895;28;20050;-65
2022/12/19 00:21:39;;;;;;;38.90;14.02;;;0.50;99.90;;;-0.04;100.00;101655.56;5184018;28;20052;-67
2022/12/19 00:24:13;;;;;;;39.92;13.60;;;0.50;99.90;;;-0.04;100.00;101650.44;5183186;28;20423;-65
2022/12/19 00:26:45;;;;;;;47.08;15.98;;;0.50;99.90;;;-0.06;100.00;101644.28;5183875;28;20042;-66
2022/12/19 00:29:17;;;;;;;38.63;13.50;;;0.50;99.90;;;-0.07;100.00;101635.66;5168451;28;20058;-65
2022/12/19 00:31:51;;;;;;;37.75;14.40;;;0.50;99.90;;;-0.03;100.00;101652.25;5162716;28;20034;-65
2022/12/19 00:34:23;;;;;;;41.35;14.27;;;0.50;99.90;;;0.03;100.00;101642.53;5167772;28;20057;-65
2022/12/19 00:36:55;;;;;;;41.05;14.60;;;0.60;99.90;;;0.04;100.00;101626.38;5183352;28;20449;-66
2022/12/19 00:39:27;;;;;;;41.30;13.63;;;0.60;99.90;;;0.03;100.00;101631.38;5162176;28;20046;-66
2022/12/19 00:41:59;;;;;;;37.15;13.60;;;0.60;99.90;;;0.04;100.00;101611.00;5175150;28;20050;-67
2022/12/19 00:44:31;;;;;;;44.38;14.68;;;0.60;99.90;;;0.10;100.00;101614.13;5187291;28;20050;-67
2022/12/19 00:47:05;;;;;;;45.10;14.88;;;0.70;99.90;;;0.09;100.00;101606.31;5185817;28;20053;-66
2022/12/19 00:49:38;;;;;;;42.15;13.95;;;0.70;99.90;;;0.10;100.00;101609.00;5184758;28;20033;-67
2022/12/19 00:52:10;;;;;;;41.80;14.18;;;0.70;99.90;;;0.08;100.00;101596.81;5185489;28;20062;-66
2022/12/19 00:54:42;;;;;;;45.03;14.52;;;0.70;99.90;;;0.13;100.00;101598.09;5185573;28;20092;-66
2022/12/19 00:57:14;;;;;;;43.20;15.27;;;0.70;99.90;;;0.17;100.00;101624.16;5170504;28;20053;-67
2022/12/19 00:59:46;;;;;;;47.53;14.75;;;0.80;99.90;;;0.19;100.00;101609.81;5184546;28;20550;-66
2022/12/19 01:02:19;;;;;;;36.67;12.88;;;0.70;99.90;;;0.24;100.00;101606.00;5179545;28;20414;-66
2022/12/19 01:04:52;;;;;;;44.58;14.80;;;0.80;99.90;;;0.22;100.00;101612.66;5185858;28;20787;-66
2022/12/19 01:07:24;;;;;;;40.55;15.13;;;0.80;99.90;;;0.24;100.00;101610.22;5175487;28;20057;-65
2022/12/19 01:09:57;;;;;;;38.78;14.15;;;0.80;99.90;;;0.25;100.00;101606.88;5185958;28;20056;-67
2022/12/19 01:12:47;;;;;;;37.88;12.65;;;0.90;99.90;;;0.26;100.00;101606.13;5186855;28;20049;-68
2022/12/19 01:15:21;;;;;;;38.95;15.20;;;0.90;99.90;;;0.30;100.00;101599.59;5167950;28;20518;-66
2022/12/19 01:17:54;;;;;;;45.38;14.60;;;0.90;99.90;;;0.30;100.00;101602.16;5164609;28;20049;-67
2022/12/19 01:20:27;;;;;;;43.83;14.55;;;0.90;99.90;;;0.33;100.00;101595.66;5165310;28;20126;-67
2022/12/19 01:23:00;;;;;;;46.25;15.05;;;0.90;99.90;;;0.35;100.00;101595.78;5165167;28;20448;-68
2022/12/19 01:25:33;;;;;;;41.15;14.32;;;0.90;99.90;;;0.34;100.00;101579.50;5179403;28;20069;-66
2022/12/19 01:28:07;;;;;;;42.28;14.02;;;0.90;99.90;;;0.35;100.00;101581.31;5168141;28;20060;-67
2022/12/19 01:30:41;;;;;;;49.95;15.15;;;0.90;99.90;;;0.36;100.00;101580.53;5166944;28;20042;-66
2022/12/19 01:33:17;;;;;;;39.55;14.02;;;1.00;99.90;;;0.37;100.00;101578.84;5152915;28;20057;-66
2022/12/19 01:35:49;;;;;;;;;;;1.00;99.90;;;0.40;100.00;101564.66;5165067;28;20050;-66
2022/12/19 01:38:21;;;;;;;39.53;12.77;;;1.00;99.90;;;0.41;100.00;101578.38;5165239;28;19926;-65
2022/12/19 01:40:57;;;;;;;40.63;12.65;;;1.00;99.90;;;0.45;100.00;101589.00;5165943;28;20048;-66
2022/12/19 01:43:32;;;;;;;40.67;13.60;;;1.00;99.90;;;0.50;100.00;101594.56;5166240;28;20057;-68
2022/12/19 01:46:06;;;;;;;42.28;15.25;;;1.00;99.90;;;0.51;100.00;101583.53;5164409;28;20054;-67
2022/12/19 01:48:43;;;;;;;37.65;13.23;;;1.00;99.90;;;0.55;100.00;101580.47;5164027;28;20042;-69
2022/12/19 01:51:20;;;;;;;44.40;14.95;;;1.10;99.90;;;0.57;100.00;101568.66;5165718;28;20430;-69
2022/12/19 01:54:00;;;;;;;37.45;12.35;;;1.10;99.90;;;0.62;100.00;101571.63;5165436;28;20042;-67
2022/12/19 01:56:36;;;;;;;42.00;14.02;;;1.10;99.90;;;0.62;100.00;101572.53;5165583;28;20046;-66
2022/12/19 01:59:20;;;;;;;41.47;14.55;;;1.20;99.90;;;0.62;100.00;101566.50;5163689;28;20176;-67
2022/12/19 02:02:00;;;;;;;34.65;13.07;;;1.20;99.90;;;0.65;100.00;101564.19;5163695;28;20065;-67
2022/12/19 02:04:36;;;;;;;39.13;13.45;;;1.20;99.90;;;0.71;100.00;101557.91;5165506;28;20495;-66
2022/12/19 02:07:09;;;;;;;41.63;13.35;;;1.20;99.90;;;0.68;100.00;101555.09;5164808;28;20057;-67
2022/12/19 02:09:41;;;;;;;38.47;13.27;;;1.20;99.90;;;0.72;100.00;101556.28;5163536;28;20475;-67
2022/12/19 02:12:15;;;;;;;47.50;15.25;;;1.20;99.90;;;0.73;100.00;101551.28;5165135;28;20109;-67
2022/12/19 02:14:48;;;;;;;38.33;13.05;;;1.20;99.90;;;0.70;100.00;101547.53;5164281;28;20484;-66
2022/12/19 02:17:29;;;;;;;37.30;12.93;;;1.20;99.90;;;0.72;100.00;101539.22;5163484;28;20071;-66
2022/12/19 02:20:28;;;;;;;;;;;1.30;99.90;;;0.72;100.00;101538.31;5164344;28;20111;-66
2022/12/19 02:23:38;;;;;;;44.05;13.00;;;1.20;99.90;;;0.73;100.00;101530.75;5163588;28;20346;-67
2022/12/19 02:26:38;;;;;;;44.13;13.85;;;1.30;99.90;;;0.69;100.00;101525.22;5167622;28;20054;-67
2022/12/19 02:29:35;;;;;;;42.33;13.90;;;1.30;99.90;;;0.71;100.00;101511.72;5163159;28;20418;-67
2022/12/19 02:32:19;;;;;;;41.50;13.43;;;1.30;99.90;;;0.70;100.00;101511.59;5163130;28;20541;-66
2022/12/19 02:35:00;;;;;;;45.78;15.40;;;1.30;99.90;;;0.73;100.00;101515.34;5163574;28;20101;-66
2022/12/19 02:37:37;;;;;;;35.22;12.68;;;1.30;99.90;;;0.74;100.00;101500.84;5179229;28;20528;-67
2022/12/19 02:40:18;;;;;;;39.72;13.98;;;1.30;99.90;;;0.75;100.00;101488.13;5163651;28;20134;-67
2022/12/19 02:42:56;;;;;;;46.05;16.20;;;1.30;99.90;;;0.73;100.00;101484.53;5164392;28;20525;-67
2022/12/19 02:45:35;;;;;;;37.08;12.32;;;1.30;99.90;;;0.74;100.00;101499.16;5163779;28;20153;-67
2022/12/19 02:48:10;;;;;;;37.85;13.32;;;1.30;99.90;;;0.78;100.00;101498.66;5178870;28;20513;-67
2022/12/19 02:50:46;;;;;;;37.22;13.20;;;1.30;99.90;;;0.76;100.00;101481.31;5163017;28;20050;-66
2022/12/19 02:53:18;;;;;;;37.88;13.15;;;1.30;99.90;;;0.72;100.00;101487.88;5179640;28;20069;-67
2022/12/19 02:56:12;;;;;;;38.13;13.80;;;1.30;99.90;;;0.74;100.00;101488.00;5179570;28;20058;-66
2022/12/19 02:59:02;;;;;;;38.10;12.77;;;1.30;99.90;;;0.75;100.00;101487.22;5179024;28;20042;-67
2022/12/19 03:01:47;;;;;;;46.08;14.38;;;1.30;99.90;;;0.76;100.00;101471.97;5179333;28;20042;-67
2022/12/19 03:04:34;;;;;;;48.88;14.65;;;1.30;99.90;;;0.77;100.00;101471.19;5178067;28;20046;-67
2022/12/19 03:07:20;;;;;;;42.63;15.05;;;1.30;99.90;;;0.79;100.00;101468.78;5162825;28;20050;-68
2022/12/19 03:10:05;;;;;;;35.88;13.13;;;1.30;99.90;;;0.82;100.00;101469.00;5162568;28;20093;-68
2022/12/19 03:12:48;;;;;;;38.90;13.82;;;1.40;99.90;;;0.84;100.00;101461.44;5162890;28;20073;-66
2022/12/19 03:15:21;;;;;;;39.03;12.82;;;1.40;99.90;;;0.83;100.00;101468.22;5164385;28;20136;-68
2022/12/19 03:17:58;;;;;;;37.35;12.65;;;1.40;99.90;;;0.83;100.00;101465.66;5163661;28;20523;-67
2022/12/19 03:20:47;;;;;;;40.25;13.63;;;1.40;99.90;;;0.84;100.00;101464.00;5164287;28;20047;-67
2022/12/19 03:23:21;;;;;;;40.05;14.18;;;1.40;99.90;;;0.89;100.00;101444.75;5164356;28;20054;-68
2022/12/19 03:26:00;;;;;;;40.53;15.13;;;1.40;99.90;;;0.87;100.00;101451.44;5164478;28;20081;-68
2022/12/19 03:28:40;;;;;;;41.05;14.90;;;1.40;99.90;;;0.86;100.00;101444.50;5163198;28;20049;-67
2022/12/19 03:31:14;;;;;;;39.53;12.80;;;1.40;99.90;;;0.86;100.00;101445.41;5164425;28;20056;-67
2022/12/19 03:33:52;;;;;;;39.85;13.68;;;1.40;99.90;;;0.88;100.00;101442.97;5164154;28;20053;-67
2022/12/19 03:36:32;;;;;;;35.63;11.90;;;1.40;99.90;;;0.88;100.00;101443.84;5163634;28;20054;-67
2022/12/19 03:39:09;;;;;;;45.28;14.02;;;1.40;99.90;;;0.90;100.00;101441.41;5163886;28;20511;-67
2022/12/19 03:44:36;;;;;;;37.78;13.95;;;1.50;99.90;;;0.93;100.00;101431.41;5163685;28;20294;-67
2022/12/19 03:47:13;;;;;;;40.58;14.50;;;1.50;99.90;;;0.93;100.00;101421.16;5163680;28;20073;-67
2022/12/19 03:49:46;;;;;;;39.45;14.45;;;1.50;99.90;;;0.97;100.00;101429.22;5163176;28;20526;-67
2022/12/19 03:52:31;;;;;;;36.35;13.23;;;1.50;99.90;;;1.01;100.00;101418.44;5163362;28;20057;-67
2022/12/19 03:55:15;;;;;;;33.95;11.90;;;1.50;99.90;;;1.08;100.00;101422.41;5163405;28;20495;-68
2022/12/19 03:57:56;;;;;;;40.78;14.02;;;1.60;99.90;;;1.12;100.00;101423.56;5163114;28;20515;-68
2022/12/19 04:00:30;;;;;;;41.10;13.20;;;1.60;99.90;;;1.11;100.00;101427.81;5163793;28;20452;-67
2022/12/19 04:03:06;;;;;;;31.88;12.70;;;1.70;99.90;;;1.15;100.00;101419.56;5162122;28;20057;-68
2022/12/19 04:05:39;;;;;;;;;;;1.60;99.90;;;1.15;100.00;101419.56;5163936;28;20406;-67
2022/12/19 04:08:13;;;;;;;39.20;13.00;;;1.70;99.90;;;1.17;100.00;101420.56;5162926;28;19929;-67
2022/12/19 04:10:51;;;;;;;34.45;12.73;;;1.70;99.90;;;1.19;100.00;101411.34;5163574;28;20050;-67
2022/12/19 04:13:33;;;;;;;43.65;14.55;;;1.70;99.90;;;1.20;100.00;101408.00;5163393;28;20050;-67
2022/12/19 04:16:14;;;;;;;40.17;13.45;;;1.70;99.90;;;1.20;100.00;101402.88;5180338;28;20445;-67
2022/12/19 04:18:51;;;;;;;36.20;13.80;;;1.70;99.90;;;1.22;100.00;101406.44;5166973;28;20045;-67
2022/12/19 04:21:30;;;;;;;43.40;14.27;;;1.80;99.90;;;1.25;100.00;101403.25;5167437;28;20046;-67
2022/12/19 04:24:11;;;;;;;41.97;15.35;;;1.80;99.90;;;1.25;100.00;101406.72;5167822;28;20533;-68
2022/12/19 04:26:47;;;;;;;36.88;14.27;;;1.80;99.90;;;1.27;100.00;101400.03;5167387;28;20158;-67
2022/12/19 04:29:22;;;;;;;37.83;13.75;;;1.80;99.90;;;1.26;100.00;101403.38;5166852;28;20487;-66
2022/12/19 04:31:56;;;;;;;39.55;13.68;;;1.80;99.90;;;1.27;100.00;101405.16;5167607;28;20404;-68
2022/12/19 04:34:29;;;;;;;48.58;16.15;;;1.80;99.90;;;1.27;100.00;101402.59;5167316;28;20597;-67
2022/12/19 04:37:01;;;;;;;40.70;14.93;;;1.80;99.90;;;1.33;100.00;101413.38;5167091;28;20232;-67
2022/12/19 04:39:34;;;;;;;35.80;13.57;;;1.80;99.90;;;1.35;100.00;101403.19;5166645;28;20043;-67
2022/12/19 04:42:06;;;;;;;44.53;15.25;;;1.90;99.90;;;1.38;100.00;101407.72;5182149;28;20050;-67
2022/12/19 04:44:38;;;;;;;41.42;14.90;;;1.90;99.90;;;1.41;100.00;101419.13;5167039;28;20064;-67
2022/12/19 04:47:11;;;;;;;44.20;16.02;;;1.90;99.90;;;1.41;100.00;101415.66;5165981;28;20072;-67
2022/12/19 04:49:43;;;;;;;39.72;14.50;;;1.90;99.90;;;1.40;100.00;101411.28;5166088;28;20053;-67
2022/12/19 04:52:16;;;;;;;38.22;13.35;;;1.90;99.90;;;1.44;100.00;101415.91;5167080;28;20118;-68
2022/12/19 04:54:50;;;;;;;42.88;15.25;;;1.90;99.90;;;1.43;100.00;101416.66;5166873;28;20411;-67
2022/12/19 04:57:22;;;;;;;40.22;15.38;;;1.90;99.90;;;1.46;100.00;101422.06;5166955;28;20046;-65
2022/12/19 04:59:54;;;;;;;37.03;12.95;;;1.90;99.90;;;1.47;100.00;101427.31;5166803;28;20120;-66
2022/12/19 05:02:26;;;;;;;42.13;14.52;;;2.00;99.90;;;1.49;100.00;101407.78;5166915;28;20050;-64
2022/12/19 05:04:59;;;;;;;37.45;13.57;;;2.00;99.90;;;1.50;100.00;101404.47;5181798;28;20046;-67
2022/12/19 05:07:31;;;;;;;37.38;13.25;;;2.00;99.90;;;1.50;100.00;101395.81;5166675;28;20039;-67
2022/12/19 05:10:07;;;;;;;48.55;14.38;;;2.00;99.90;;;1.53;100.00;101393.53;5166776;28;20518;-66
2022/12/19 05:12:39;;;;;;;39.28;12.60;;;2.00;99.90;;;1.54;100.00;101395.31;5166671;28;20342;-66
2022/12/19 05:15:11;;;;;;;43.42;14.75;;;2.10;99.90;;;1.56;100.00;101388.59;5236553;22;20034;-74
2022/12/19 05:17:43;;;;;;;39.03;13.63;;;2.00;99.90;;;1.57;100.00;101391.31;5180630;28;20478;-73
2022/12/19 05:20:15;;;;;;;38.13;14.13;;;2.10;99.90;;;1.61;100.00;101387.31;5185244;28;20514;-73
2022/12/19 05:22:47;;;;;;;37.97;13.80;;;2.10;99.90;;;1.65;100.00;101397.06;5186746;28;20048;-74
2022/12/19 05:25:21;;;;;;;42.40;14.27;;;2.10;99.90;;;1.68;100.00;101399.88;5186659;28;20049;-73
2022/12/19 05:27:53;;;;;;;40.17;13.70;;;2.20;99.90;;;1.71;100.00;101397.56;5185190;28;20046;-71
2022/12/19 05:30:25;;;;;;;39.92;13.52;;;2.20;99.90;;;1.77;100.00;101389.44;5178459;28;20038;-72
2022/12/19 05:32:58;;;;;;;44.10;15.93;;;2.20;99.90;;;1.80;100.00;101390.56;5186317;28;20046;-72
2022/12/19 05:35:30;;;;;;;44.03;14.48;;;2.30;99.90;;;1.84;100.00;101397.75;5186578;28;20045;-72
2022/12/19 05:38:02;;;;;;;46.70;15.05;;;2.30;99.90;;;1.85;100.00;101389.25;5186119;28;20061;-72
2022/12/19 05:40:35;;;;;;;42.33;14.82;;;2.30;99.90;;;1.89;100.00;101388.75;5185108;28;20414;-73
2022/12/19 05:43:07;;;;;;;42.67;14.88;;;2.40;99.90;;;1.93;100.00;101386.41;5184900;28;20054;-72
2022/12/19 05:45:40;;;;;;;40.72;14.50;;;2.40;99.90;;;1.94;100.00;101385.63;5180744;28;20417;-72
2022/12/19 05:48:12;;;;;;;43.70;14.82;;;2.40;99.90;;;1.95;100.00;101382.25;5185638;28;20041;-72
2022/12/19 05:50:48;;;;;;;40.05;15.20;;;2.40;99.90;;;1.99;100.00;101386.88;5184738;28;20077;-71
2022/12/19 05:53:20;;;;;;;40.35;14.25;;;2.40;99.90;;;2.03;100.00;101394.97;5186255;28;20054;-73
2022/12/19 05:56:06;;;;;;;43.47;14.25;;;2.50;99.90;;;2.04;100.00;101398.44;5184759;28;20394;-71
2022/12/19 05:58:40;;;;;;;43.05;13.75;;;2.50;99.90;;;2.06;100.00;101390.03;5186092;28;20042;-71
2022/12/19 06:01:15;;;;;;;36.25;12.77;;;2.50;99.90;;;2.09;100.00;101399.69;5184573;28;20164;-72
2022/12/19 06:03:48;;;;;;;40.17;15.20;;;2.50;99.90;;;2.09;100.00;101391.97;5185797;28;20060;-71
2022/12/19 06:06:24;;;;;;;42.13;15.98;;;2.50;99.90;;;2.11;100.00;101377.56;5186140;28;20045;-71
2022/12/19 06:08:59;;;;;;;37.42;13.93;;;2.60;99.90;;;2.13;100.00;101394.88;5185543;28;20044;-72
2022/12/19 06:11:32;;;;;;;44.95;14.48;;;2.60;99.90;;;2.12;100.00;101399.91;5185793;28;20052;-72
2022/12/19 06:14:07;;;;;;;37.05;13.55;;;2.60;99.90;;;2.13;100.00;101402.59;5185665;28;20045;-72
2022/12/19 06:16:39;;;;;;;41.70;13.95;;;2.60;99.90;;;2.14;100.00;101399.25;5184214;28;20140;-72
2022/12/19 06:19:11;;;;;;;42.80;13.80;;;2.60;99.90;;;2.15;100.00;101400.13;5185213;28;20045;-70
2022/12/19 06:21:44;;;;;;;39.22;15.00;;;2.60;99.90;;;2.18;100.00;101400.41;5185733;28;20399;-73
2022/12/19 06:24:16;;;;;;;38.75;15.98;;;2.60;99.90;;;2.18;100.00;101400.41;5185555;28;20041;-72
2022/12/19 06:26:50;;;;;;;41.88;15.85;;;2.60;99.90;;;2.18;100.00;101411.56;5185340;28;20050;-72
2022/12/19 06:29:22;;;;;;;43.20;16.33;;;2.60;99.90;;;2.18;100.00;101405.53;5185109;28;20050;-72
2022/12/19 06:31:54;;;;;;;42.38;16.80;;;2.70;99.90;;;2.16;100.00;101410.56;5185435;28;20553;-72
2022/12/19 06:34:26;;;;;;;42.40;15.90;;;2.60;99.90;;;2.17;100.00;101404.66;5185850;28;20080;-72
2022/12/19 06:36:58;;;;;;;41.60;16.58;;;2.60;99.90;;;2.17;100.00;101411.47;5185371;28;20074;-71
2022/12/19 06:39:31;;;;;;;38.42;13.20;;;2.60;99.90;;;2.17;100.00;101417.50;5185028;28;20052;-74
2022/12/19 06:42:22;;;;;;;43.05;14.25;;;2.60;99.90;;;2.17;100.00;101414.03;5185401;28;20509;-72
2022/12/19 06:44:55;;;;;;;43.35;13.80;;;2.60;99.90;;;2.14;100.00;101406.06;5185177;28;20057;-71
2022/12/19 06:47:27;;;;;;;36.53;13.13;;;2.70;99.90;;;2.16;100.00;101401.97;5183284;28;20058;-73
2022/12/19 06:49:59;;;;;;;44.08;15.75;;;2.60;99.90;;;2.17;100.00;101396.94;5184828;28;20048;-73
2022/12/19 06:52:31;;;;;;;34.60;13.73;;;2.60;99.90;;;2.19;100.00;101399.63;5185193;28;20384;-73
2022/12/19 06:55:04;;;;;;;39.58;14.23;;;2.60;99.90;;;2.22;100.00;101401.50;5185163;28;20046;-73
2022/12/19 06:57:44;;;;;;;40.90;16.02;;;2.70;99.90;;;2.22;100.00;101412.72;5184442;28;20049;-72
2022/12/19 07:00:17;;;;;;;39.08;15.35;;;2.70;99.90;;;2.25;100.00;101412.06;5184609;28;20517;-72
2022/12/19 07:02:51;;;;;;;41.83;14.88;;;2.70;99.90;;;2.26;100.00;101414.75;5185162;28;20042;-72
2022/12/19 07:05:24;;;;;;;44.72;15.85;;;2.70;99.90;;;2.32;100.00;101406.59;5184126;28;20074;-56
2022/12/19 07:07:56;;;;;;;36.80;14.75;;;2.70;99.90;;;2.33;100.00;101411.84;5183817;28;20052;-59
2022/12/19 07:10:28;;;;;;;35.90;14.20;;;2.80;99.90;;;2.36;100.00;101409.53;5184009;28;20398;-59
2022/12/19 07:13:03;;;;;;;36.75;12.93;;;2.80;99.90;;;2.37;100.00;101403.63;5184010;28;20046;-58
2022/12/19 07:15:36;;;;;;;37.90;13.45;;;2.80;99.90;;;2.42;100.00;101398.81;5183992;28;20082;-57
2022/12/19 07:18:09;;;;;;;43.80;14.73;;;2.80;99.90;;;2.44;100.00;101402.41;5183691;28;20064;-58
2022/12/19 07:20:42;;;;;;;34.30;12.15;;;2.80;99.90;;;2.47;100.00;101419.75;5182760;28;20093;-57
2022/12/19 07:23:18;;;;;;;37.95;13.98;;;2.90;99.90;;;2.50;100.00;101412.28;5183881;28;20044;-57
2022/12/19 07:25:50;;;;;;;41.78;13.88;;;2.90;99.90;;;2.53;100.00;101418.53;5183879;28;20127;-57
2022/12/19 07:28:24;;;;;;;36.25;12.82;;;2.90;99.90;;;2.58;100.00;101422.38;5183488;28;20061;-57
2022/12/19 07:30:56;;;;;;;41.70;14.65;;;3.00;99.90;;;2.60;100.00;101430.19;5183712;28;20404;-57
2022/12/19 07:33:28;;;;;;;36.05;12.85;;;3.00;99.90;;;2.65;100.00;101426.31;5182382;28;20071;-57
2022/12/19 07:36:00;;;;;;;39.78;16.42;;;3.10;99.90;;;2.69;100.00;101423.19;5183662;28;20525;-57
2022/12/19 07:38:32;;;;;;;35.78;14.20;;;3.10;99.90;;;2.71;100.00;101437.06;5183184;28;20045;-58
2022/12/19 07:41:05;;;;;;;40.33;13.90;;;3.10;99.90;;;2.75;100.00;101433.06;5183799;28;20046;-57
2022/12/19 07:43:38;;;;;;;39.42;14.63;;;3.20;99.90;;;2.76;100.00;101433.19;5183713;28;20050;-55
2022/12/19 07:46:10;;;;;;;38.67;15.00;;;3.20;99.90;;;2.79;100.00;101428.25;5183342;28;20064;-56
2022/12/19 07:48:42;;;;;;;36.03;12.63;;;3.20;99.90;;;2.80;100.00;101437.75;5183255;28;20046;-55
2022/12/19 07:51:14;;;;;;;41.15;14.20;;;3.20;99.90;;;2.82;100.00;101438.78;5182920;28;20399;-54
2022/12/19 07:53:47;;;;;;;39.25;12.77;;;3.20;99.90;;;2.84;100.00;101434.66;5183264;28;20132;-56
2022/12/19 07:56:19;;;;;;;35.58;14.05;;;3.30;99.90;;;2.84;100.00;101434.66;5183015;28;20042;-55
2022/12/19 07:58:53;;;;;;;34.20;12.88;;;3.30;99.90;;;2.86;100.00;101422.78;5182615;28;20471;-55
2022/12/19 08:01:25;;;;;;;41.33;15.90;;;3.30;99.90;;;2.86;100.00;101427.03;5183724;28;20050;-55
2022/12/19 08:03:57;;;;;;;48.58;16.50;;;3.30;99.90;;;2.85;100.00;101408.09;5183339;28;20057;-56
2022/12/19 08:06:29;;;;;;;46.03;17.13;;;3.30;99.90;;;2.85;100.00;101422.66;5183412;28;20048;-55
2022/12/19 08:09:01;;;;;;;51.72;16.83;;;3.30;99.90;;;2.88;100.00;101415.19;5182841;28;20149;-56
2022/12/19 08:11:33;;;;;;;52.47;18.15;;;3.30;99.90;;;2.89;100.00;101399.84;5183366;28;20414;-57
2022/12/19 08:14:06;;;;;;;40.08;15.20;;;3.30;99.90;;;2.89;100.00;101406.69;5181854;28;20046;-56
2022/12/19 08:16:38;;;;;;;44.25;16.17;;;3.30;99.90;;;2.92;100.00;101412.94;5182621;28;20494;-55
2022/12/19 08:19:11;;;;;;;47.78;17.27;;;3.40;99.90;;;2.96;100.00;101409.81;5108465;28;20051;-55
2022/12/19 08:21:43;;;;;;;43.50;16.98;;;3.40;99.90;;;3.15;100.00;101406.03;5195608;28;20398;-55
2022/12/19 08:24:16;;;;;;;52.17;17.45;;;3.60;99.90;;;3.21;100.00;101398.78;5204141;28;20251;-55
2022/12/19 08:26:48;;;;;;;44.78;16.23;;;3.70;99.90;;;3.19;100.00;101392.59;5150503;28;20054;-56
2022/12/19 08:29:21;;;;;;;49.83;18.65;;;3.70;99.90;;;3.17;100.00;101407.03;5162635;28;20057;-57
2022/12/19 08:31:53;;;;;;;49.85;17.73;;;3.70;99.90;;;3.17;100.00;101404.47;5162622;28;20042;-56
2022/12/19 08:34:25;;;;;;;45.10;16.10;;;3.60;99.90;;;3.20;100.00;101400.44;5162747;28;20046;-56
2022/12/19 08:36:57;;;;;;;39.80;14.90;;;3.60;99.90;;;3.18;100.00;101395.94;5164614;28;20065;-55
2022/12/19 08:39:29;;;;;;;37.28;14.52;;;3.70;99.90;;;3.17;100.00;101405.34;5173487;28;20048;-57
2022/12/19 08:42:02;;;;;;;44.92;15.85;;;3.70;99.90;;;3.20;100.00;101409.88;5182850;28;20121;-57
2022/12/19 08:44:35;;;;;;;40.05;15.27;;;3.70;99.90;;;3.22;100.00;101414.34;5193498;28;20092;-55
2022/12/19 08:47:08;;;;;;;36.80;14.02;;;3.60;99.90;;;3.23;100.00;101405.81;5196171;28;20054;-57
2022/12/19 08:49:40;;;;;;;33.65;11.65;;;3.70;99.90;;;3.24;100.00;101402.44;5182013;28;20587;-57
2022/12/19 08:52:12;;;;;;;41.75;14.60;;;3.70;99.90;;;3.25;100.00;101411.06;5181983;28;20064;-57
2022/12/19 08:54:45;;;;;;;38.83;13.65;;;3.70;99.90;;;3.31;100.00;101419.25;5180168;28;20053;-55
2022/12/19 08:57:17;;;;;;;31.10;12.13;;;3.70;99.90;;;3.33;100.00;101417.72;5179081;28;20053;-56
2022/12/19 08:59:50;;;;;;;39.03;15.25;;;3.70;99.90;;;3.31;100.00;101423.53;5178531;28;20058;-57
2022/12/19 09:02:23;;;;;;;35.45;13.10;;;3.70;99.90;;;3.31;100.00;101427.00;5163398;28;20061;-56
2022/12/19 09:04:55;;;;;;;42.65;15.27;;;3.70;99.90;;;3.31;100.00;101421.84;5184216;28;20057;-59
2022/12/19 09:07:27;;;;;;;38.55;15.30;;;3.70;99.90;;;3.30;100.00;101420.03;5185048;28;20062;-58
2022/12/19 09:09:59;;;;;;;40.95;15.88;;;3.70;99.90;;;3.31;100.00;101429.56;5184510;28;20124;-55
2022/12/19 09:12:32;;;;;;;45.45;16.20;;;3.70;99.90;;;3.29;100.00;101413.09;5186200;28;20050;-56
2022/12/19 09:15:06;;;;;;;35.50;14.23;;;3.70;99.90;;;3.29;100.00;101420.84;5186053;28;20045;-55
2022/12/19 09:17:38;;;;;;;34.33;13.75;;;3.70;99.90;;;3.30;100.00;101414.00;5185854;28;20065;-55
2022/12/19 09:20:11;;;;;;;36.25;14.23;;;3.70;99.90;;;3.30;100.00;101420.03;5183337;28;20042;-56
2022/12/19 09:22:43;;;;;;;40.58;14.80;;;3.70;99.90;;;3.30;100.00;101409.75;5183351;28;20053;-56
2022/12/19 09:25:16;;;;;;;35.08;13.80;;;3.70;99.90;;;3.30;100.00;101422.63;5184433;28;20034;-55
2022/12/19 09:27:48;;;;;;;39.95;14.15;;;3.70;99.90;;;3.28;100.00;101411.31;5182991;28;20127;-55
2022/12/19 09:30:21;;;;;;;47.20;16.70;;;3.70;99.90;;;3.28;100.00;101398.44;5186785;28;20054;-56
2022/12/19 09:32:53;;;;;;;47.45;16.67;;;3.70;99.90;;;3.29;100.00;101395.06;5186101;28;20042;-56
2022/12/19 09:35:26;;;;;;;46.28;17.48;;;3.70;99.90;;;3.29;100.00;101387.34;5186112;28;20050;-55
2022/12/19 09:37:58;;;;;;;42.45;16.35;;;3.70;99.90;;;3.31;100.00;101395.16;5185427;28;20052;-54
2022/12/19 09:40:49;;;;;;;50.78;17.50;;;3.70;99.90;;;3.34;100.00;101392.84;5185654;28;20068;-56
2022/12/19 09:43:38;;;;;;;40.25;15.48;;;3.70;99.90;;;3.34;100.00;101388.56;5186157;28;20196;-55
2022/12/19 09:46:18;;;;;;;44.33;15.95;;;3.70;99.90;;;3.36;100.00;101379.25;5185783;28;20064;-57
2022/12/19 09:48:56;;;;;;;42.47;14.27;;;3.80;99.90;;;3.39;100.00;101386.31;5185804;28;20076;-55
2022/12/19 09:51:38;;;;;;;38.17;13.95;;;3.80;99.90;;;3.39;100.00;101374.34;5185657;28;20045;-55
2022/12/19 09:54:15;;;;;;;37.35;14.65;;;3.80;99.90;;;3.43;100.00;101371.19;5185680;28;20415;-56
2022/12/19 09:56:49;;;;;;;37.22;14.70;;;3.80;99.90;;;3.45;100.00;101374.75;5185565;28;20053;-56
2022/12/19 09:59:31;;;;;;;39.10;13.48;;;3.90;99.90;;;3.47;100.00;101375.78;5185095;28;20042;-56
2022/12/19 10:02:23;;;;;;;36.35;13.85;;;3.90;99.90;;;3.48;100.00;101377.56;5185622;28;20363;-56
2022/12/19 10:05:06;;;;;;;36.15;13.40;;;3.90;99.90;;;3.51;100.00;101395.81;5184186;28;20462;-58
2022/12/19 10:07:38;;;;;;;40.78;14.43;;;3.90;99.90;;;3.54;100.00;101390.00;5185060;28;20046;-57
2022/12/19 10:10:16;;;;;;;38.13;13.35;;;3.90;99.90;;;3.57;100.00;101391.91;5185376;28;20046;-57
2022/12/19 10:13:06;;;;;;;31.42;12.90;;;4.00;99.90;;;3.59;100.00;101382.63;5184863;28;20050;-57
2022/12/19 10:15:47;;;;;;;34.45;11.95;;;4.00;99.90;;;3.59;100.00;101375.78;5185312;28;20046;-58
2022/12/19 10:18:50;;;;;;;39.58;13.07;;;4.00;99.90;;;3.58;100.00;101375.66;5185262;28;20466;-56
2022/12/19 10:21:33;;;;;;;32.50;12.98;;;4.00;99.90;;;3.59;100.00;101380.94;5185127;28;20050;-63
2022/12/19 10:24:57;;;;;;;32.97;12.43;;;4.00;99.90;;;3.60;100.00;101376.69;5185540;28;20580;-57
2022/12/19 10:27:36;;;;;;;31.67;12.48;;;4.00;99.90;;;3.61;100.00;101373.31;5184797;28;20046;-56
2022/12/19 10:30:14;;;;;;;38.33;13.82;;;4.00;99.90;;;3.62;100.00;101382.81;5185608;28;20427;-56
2022/12/19 10:33:01;;;;;;;31.25;12.15;;;4.00;99.90;;;3.59;100.00;101380.03;5191003;28;20513;-56
2022/12/19 10:35:41;;;;;;;41.20;14.75;;;4.00;99.90;;;3.62;100.00;101380.25;5205318;28;20049;-57
2022/12/19 10:38:24;;;;;;;34.08;13.18;;;4.00;99.90;;;3.67;100.00;101378.91;5205023;28;20569;-59
2022/12/19 10:41:13;;;;;;;32.17;14.27;;;4.10;99.90;;;3.73;100.00;101382.81;5205906;28;20037;-56
2022/12/19 10:43:56;;;;;;;31.63;11.93;;;4.10;99.90;;;3.78;100.00;101367.66;5205728;28;20434;-59